Time;durP1;ratioP1;P1;durP2;ratioP2;P2;SDS_P1;SDS_P2;PMS_P1;PMS_P2;Temp;Humidity;BMP_temperature;BMP_pressure;BME280_temperature;BME280_humidity;BME280_pressure;Samples;Min_cycle;Max_cycle;Signal;HPM_P1;HPM_P2
2023/12/17 00:01:14;;;;;;;8.00;3.10;;;;;;;6.73;100.00;102290.39;105214;1257;69008;-54
2023/12/17 00:03:42;;;;;;;11.50;3.30;;;;;;;6.73;100.00;102303.07;105122;1257;69107;-55
2023/12/17 00:06:10;;;;;;;13.40;3.30;;;;;;;6.73;100.00;102303.77;105138;1256;74069;-55
2023/12/17 00:08:39;;;;;;;11.60;3.80;;;;;;;6.75;100.00;102305.19;105206;1256;81958;-53
2023/12/17 00:11:07;;;;;;;11.00;3.70;;;;;;;6.76;100.00;102306.41;105131;1261;71638;-54
2023/12/17 00:13:36;;;;;;;9.60;3.10;;;;;;;6.77;100.00;102312.85;105204;1256;69179;-55
2023/12/17 00:16:05;;;;;;;8.60;3.30;;;;;;;6.78;100.00;102309.20;105175;1260;69292;-53
2023/12/17 00:18:33;;;;;;;8.10;3.40;;;;;;;6.79;100.00;102305.73;105245;1261;74215;-56
2023/12/17 00:21:03;;;;;;;7.00;3.10;;;;;;;6.79;100.00;102296.36;105225;1257;82966;-56
2023/12/17 00:23:31;;;;;;;5.90;2.60;;;;;;;6.80;100.00;102294.46;105172;1257;72956;-56
2023/12/17 00:25:59;;;;;;;11.70;3.40;;;;;;;6.80;100.00;102300.20;105131;1261;69122;-54
2023/12/17 00:28:28;;;;;;;8.60;3.30;;;;;;;6.80;100.00;102300.54;105168;1261;69219;-55
2023/12/17 00:30:56;;;;;;;10.40;3.60;;;;;;;6.81;100.00;102296.72;105132;1262;75041;-55
2023/12/17 00:33:24;;;;;;;5.80;2.50;;;;;;;6.81;100.00;102302.29;105126;1261;81808;-52
2023/12/17 00:35:53;;;;;;;11.00;2.90;;;;;;;6.82;100.00;102299.52;105142;1257;72049;-55
2023/12/17 00:38:21;;;;;;;7.30;3.10;;;;;;;6.82;100.00;102302.64;105140;1261;69189;-54
2023/12/17 00:40:49;;;;;;;7.30;3.50;;;;;;;6.83;100.00;102298.99;105137;1260;69177;-54
2023/12/17 00:43:17;;;;;;;9.00;3.20;;;;;;;6.84;100.00;102298.13;105205;1256;73017;-55
2023/12/17 00:45:45;;;;;;;9.10;3.40;;;;;;;6.84;100.00;102289.79;105135;1262;81926;-55
2023/12/17 00:48:14;;;;;;;6.80;2.90;;;;;;;6.85;100.00;102292.23;105139;1257;72956;-55
2023/12/17 00:50:42;;;;;;;6.20;3.00;;;;;;;6.85;100.00;102290.67;105120;1257;69152;-56
2023/12/17 00:53:10;;;;;;;8.70;2.90;;;;;;;6.85;100.00;102284.60;105144;1256;69247;-55
2023/12/17 00:55:38;;;;;;;9.40;3.60;;;;;;;6.85;100.00;102282.35;105213;1256;74941;-55
2023/12/17 00:58:06;;;;;;;10.00;3.50;;;;;;;6.85;100.00;102272.96;105165;1262;81747;-56
2023/12/17 01:00:35;;;;;;;7.30;3.30;;;;;;;6.85;100.00;102266.88;105170;1257;73095;-56
2023/12/17 01:03:17;;;;;;;10.10;3.50;;;;;;;6.85;100.00;102260.80;105109;1261;69217;-55
2023/12/17 01:05:45;;;;;;;6.50;2.90;;;;;;;6.85;100.00;102263.05;105198;1261;69133;-55
2023/12/17 01:08:14;;;;;;;10.30;3.50;;;;;;;6.85;100.00;102262.87;105172;1256;74144;-55
2023/12/17 01:10:43;;;;;;;8.50;3.50;;;;;;;6.84;100.00;102269.12;105173;1260;81857;-55
2023/12/17 01:13:11;;;;;;;8.10;3.20;;;;;;;6.84;100.00;102269.64;105154;1257;71856;-56
2023/12/17 01:15:39;;;;;;;9.50;3.50;;;;;;;6.85;100.00;102272.09;105155;1257;69186;-55
2023/12/17 01:18:07;;;;;;;9.40;3.10;;;;;;;6.85;100.00;102274.69;105145;1260;69191;-52
2023/12/17 01:20:36;;;;;;;7.80;3.30;;;;;;;6.84;100.00;102282.84;105161;1256;73781;-55
2023/12/17 01:23:04;;;;;;;8.80;3.80;;;;;;;6.84;100.00;102281.27;105151;1257;81827;-55
2023/12/17 01:25:32;;;;;;;10.60;3.20;;;;;;;6.84;100.00;102276.42;105121;1257;73096;-55
2023/12/17 01:28:00;;;;;;;10.20;3.50;;;;;;;6.84;100.00;102273.46;105127;1256;69067;-55
2023/12/17 01:30:28;;;;;;;13.10;3.50;;;;;;;6.84;100.00;102270.85;105185;1260;69183;-56
2023/12/17 01:32:57;;;;;;;7.50;3.30;;;;;;;6.83;100.00;102273.28;105164;1260;72697;-55
2023/12/17 01:35:25;;;;;;;8.30;3.50;;;;;;;6.82;100.00;102286.14;105147;1260;82051;-55
2023/12/17 01:37:53;;;;;;;9.70;3.60;;;;;;;6.81;100.00;102301.06;105122;1262;70173;-56
2023/12/17 01:40:21;;;;;;;7.50;3.70;;;;;;;6.81;100.00;102309.40;105132;1257;69209;-55
2023/12/17 01:42:53;;;;;;;8.80;4.00;;;;;;;6.82;100.00;102304.90;105143;1258;69712;-55
2023/12/17 01:45:21;;;;;;;7.50;3.80;;;;;;;6.81;100.00;102300.02;105160;1257;73518;-52
2023/12/17 01:47:49;;;;;;;10.10;3.30;;;;;;;6.80;100.00;102310.27;105172;1260;82706;-54
2023/12/17 01:50:18;;;;;;;12.00;4.00;;;;;;;6.82;100.00;102310.63;105196;1260;72319;-54
2023/12/17 01:52:46;;;;;;;8.70;3.90;;;;;;;6.83;100.00;102294.83;105127;1259;69086;-55
2023/12/17 01:55:15;;;;;;;9.40;3.90;;;;;;;6.84;100.00;102292.23;105147;1261;69211;-56
2023/12/17 01:57:43;;;;;;;9.90;4.10;;;;;;;6.83;100.00;102289.80;105222;1257;74117;-55
2023/12/17 02:00:12;;;;;;;9.60;3.50;;;;;;;6.82;100.00;102290.66;105171;1257;81515;-54
2023/12/17 02:02:40;;;;;;;10.30;3.50;;;;;;;6.83;100.00;102293.79;105184;1257;72207;-56
2023/12/17 02:05:09;;;;;;;8.70;3.60;;;;;;;6.84;100.00;102288.75;105140;1260;69107;-55
2023/12/17 02:07:39;;;;;;;8.10;3.90;;;;;;;6.84;100.00;102297.45;105157;1260;69096;-55
2023/12/17 02:10:08;;;;;;;10.20;4.00;;;;;;;6.85;100.00;102298.16;105197;1260;73859;-56
2023/12/17 02:12:36;;;;;;;8.10;4.30;;;;;;;6.85;100.00;102305.61;105103;1261;82094;-55
2023/12/17 02:15:06;;;;;;;7.90;3.50;;;;;;;6.84;100.00;102305.77;105068;1262;71702;-55
2023/12/17 02:17:34;;;;;;;7.60;3.60;;;;;;;6.84;100.00;102298.48;105166;1260;69131;-56
2023/12/17 02:20:03;;;;;;;11.80;3.70;;;;;;;6.84;100.00;102290.66;105136;1263;69115;-56
2023/12/17 02:22:33;;;;;;;11.40;4.00;;;;;;;6.84;100.00;102290.14;105221;1257;75138;-55
2023/12/17 02:25:01;;;;;;;9.00;3.90;;;;;;;6.85;100.00;102297.11;105176;1262;82344;-55
2023/12/17 02:27:30;;;;;;;10.30;3.60;;;;;;;6.84;100.00;102297.43;105222;1257;71151;-53
2023/12/17 02:29:58;;;;;;;9.60;4.40;;;;;;;6.84;100.00;102292.39;105224;1262;69177;-55
2023/12/17 02:32:27;;;;;;;11.00;4.50;;;;;;;6.83;100.00;102290.66;105205;1261;69118;-55
2023/12/17 02:34:55;;;;;;;10.60;4.20;;;;;;;6.83;100.00;102283.71;105132;1257;73922;-56
2023/12/17 02:37:23;;;;;;;10.30;4.40;;;;;;;6.82;100.00;102282.83;105163;1262;81612;-55
2023/12/17 02:39:51;;;;;;;8.90;4.00;;;;;;;6.81;100.00;102283.68;105157;1262;71859;-56
2023/12/17 02:42:21;;;;;;;8.40;3.70;;;;;;;6.81;100.00;102280.04;105119;1262;69103;-55
2023/12/17 02:44:50;;;;;;;7.40;3.50;;;;;;;6.81;100.00;102278.13;105166;1259;69079;-54
2023/12/17 02:47:18;;;;;;;9.50;4.60;;;;;;;6.80;100.00;102277.44;105163;1256;73662;-55
2023/12/17 02:49:46;;;;;;;12.90;4.10;;;;;;;6.79;100.00;102283.16;105151;1260;82714;-55
2023/12/17 02:52:14;;;;;;;12.20;4.70;;;;;;;6.78;100.00;102286.44;105172;1262;71456;-55
2023/12/17 02:54:43;;;;;;;9.30;3.80;;;;;;;6.77;100.00;102298.95;105133;1261;69217;-53
2023/12/17 02:57:11;;;;;;;10.70;3.90;;;;;;;6.77;100.00;102291.31;105224;1260;69196;-51
2023/12/17 02:59:40;;;;;;;8.30;4.00;;;;;;;6.77;100.00;102293.39;105136;1257;74991;-55
2023/12/17 03:02:08;;;;;;;6.20;3.40;;;;;;;6.76;100.00;102294.42;105213;1260;80273;-55
2023/12/17 03:04:37;;;;;;;9.70;4.20;;;;;;;6.75;100.00;102294.41;105153;1258;71708;-55
2023/12/17 03:07:05;;;;;;;10.00;4.10;;;;;;;6.74;100.00;102290.75;105131;1263;69178;-55
2023/12/17 03:09:33;;;;;;;9.40;4.50;;;;;;;6.73;100.00;102288.30;105182;1262;69208;-55
2023/12/17 03:12:02;;;;;;;7.30;3.60;;;;;;;6.72;100.00;102296.81;105179;1261;73897;-54
2023/12/17 03:14:31;;;;;;;11.20;3.80;;;;;;;6.72;100.00;102296.13;105207;1262;81631;-55
2023/12/17 03:16:59;;;;;;;7.60;4.00;;;;;;;6.71;100.00;102293.16;105201;1258;72192;-54
2023/12/17 03:19:28;;;;;;;9.30;4.00;;;;;;;6.70;100.00;102298.70;105187;1262;69180;-55
2023/12/17 03:21:57;;;;;;;7.90;4.10;;;;;;;6.70;100.00;102306.17;105261;1267;69190;-54
2023/12/17 03:24:25;;;;;;;7.90;3.70;;;;;;;6.70;100.00;102305.66;105180;1261;73860;-56
2023/12/17 03:26:53;;;;;;;7.90;3.60;;;;;;;6.71;100.00;102302.20;105131;1256;81552;-54
2023/12/17 03:29:21;;;;;;;9.10;3.80;;;;;;;6.70;100.00;102300.61;105100;1257;71666;-54
2023/12/17 03:31:49;;;;;;;6.90;3.50;;;;;;;6.71;100.00;102301.52;105206;1257;69153;-55
2023/12/17 03:34:18;;;;;;;7.20;3.70;;;;;;;6.70;100.00;102301.30;105122;1262;69230;-55
2023/12/17 03:36:46;;;;;;;7.20;4.00;;;;;;;6.71;100.00;102301.67;105179;1256;72876;-54
2023/12/17 03:39:14;;;;;;;10.70;4.50;;;;;;;6.71;100.00;102299.94;105183;1263;82087;-54
2023/12/17 03:41:43;;;;;;;7.60;4.30;;;;;;;6.71;100.00;102299.23;105139;1257;71988;-55
2023/12/17 03:44:11;;;;;;;10.50;4.20;;;;;;;6.71;100.00;102294.21;105180;1262;69097;-55
2023/12/17 03:46:39;;;;;;;9.50;4.10;;;;;;;6.71;100.00;102295.77;105150;1261;69215;-54
2023/12/17 03:49:07;;;;;;;7.00;4.10;;;;;;;6.72;100.00;102301.33;105180;1256;73763;-55
2023/12/17 03:51:36;;;;;;;13.70;4.90;;;;;;;6.71;100.00;102295.08;105244;1260;81887;-55
2023/12/17 03:54:04;;;;;;;7.80;4.20;;;;;;;6.71;100.00;102287.08;105162;1257;71774;-56
2023/12/17 03:56:32;;;;;;;8.20;4.80;;;;;;;6.72;100.00;102281.35;105167;1262;69106;-55
2023/12/17 03:59:01;;;;;;;9.90;5.10;;;;;;;6.71;100.00;102288.13;105124;1260;69157;-54
2023/12/17 04:01:29;;;;;;;10.70;5.10;;;;;;;6.71;100.00;102279.77;105187;1258;73979;-56
2023/12/17 04:03:57;;;;;;;10.50;4.90;;;;;;;6.71;100.00;102282.04;105109;1263;81659;-56
2023/12/17 04:06:25;;;;;;;9.00;4.40;;;;;;;6.72;100.00;102270.41;105169;1261;73904;-55
2023/12/17 04:08:54;;;;;;;11.10;4.50;;;;;;;6.71;100.00;102274.23;105178;1260;69133;-55
2023/12/17 04:11:23;;;;;;;8.50;4.60;;;;;;;6.71;100.00;102268.83;105183;1261;69186;-55
2023/12/17 04:13:51;;;;;;;9.60;4.10;;;;;;;6.71;100.00;102271.10;105188;1262;75060;-55
2023/12/17 04:16:19;;;;;;;10.30;4.50;;;;;;;6.71;100.00;102271.97;105126;1256;80571;-54
2023/12/17 04:18:48;;;;;;;7.80;3.90;;;;;;;6.71;100.00;102270.23;105166;1263;71816;-55
2023/12/17 04:21:16;;;;;;;8.50;5.10;;;;;;;6.72;100.00;102271.63;105195;1262;69125;-55
2023/12/17 04:23:45;;;;;;;8.50;4.40;;;;;;;6.72;100.00;102263.64;105130;1261;69148;-55
2023/12/17 04:26:13;;;;;;;6.90;3.80;;;;;;;6.73;100.00;102264.15;105109;1262;73661;-54
2023/12/17 04:28:41;;;;;;;9.30;4.50;;;;;;;6.72;100.00;102266.59;105138;1263;82807;-55
2023/12/17 04:31:10;;;;;;;8.10;4.40;;;;;;;6.72;100.00;102264.50;105138;1260;71177;-55
2023/12/17 04:33:38;;;;;;;11.10;4.70;;;;;;;6.72;100.00;102272.66;105156;1260;69073;-55
2023/12/17 04:36:08;;;;;;;10.20;4.40;;;;;;;6.72;100.00;102267.98;105153;1260;69116;-55
2023/12/17 04:38:36;;;;;;;10.00;4.70;;;;;;;6.72;100.00;102269.20;105197;1258;73861;-55
2023/12/17 04:41:05;;;;;;;11.20;4.60;;;;;;;6.73;100.00;102274.92;105130;1262;82846;-55
2023/12/17 04:43:33;;;;;;;7.40;4.30;;;;;;;6.73;100.00;102272.84;105191;1263;71593;-55
2023/12/17 04:46:02;;;;;;;10.80;4.80;;;;;;;6.73;100.00;102276.84;105192;1263;69180;-55
2023/12/17 04:48:30;;;;;;;9.80;4.30;;;;;;;6.73;100.00;102283.43;105196;1257;69223;-55
2023/12/17 04:50:59;;;;;;;10.40;4.70;;;;;;;6.73;100.00;102285.88;105192;1263;74963;-55
2023/12/17 04:53:27;;;;;;;9.00;4.40;;;;;;;6.73;100.00;102292.48;105147;1263;82693;-55
2023/12/17 04:55:55;;;;;;;9.20;4.80;;;;;;;6.73;100.00;102291.42;105109;1260;72294;-55
2023/12/17 04:58:24;;;;;;;8.10;4.30;;;;;;;6.73;100.00;102291.42;105131;1258;69107;-55
2023/12/17 05:00:53;;;;;;;9.20;4.40;;;;;;;6.73;100.00;102296.99;105180;1257;69199;-55
2023/12/17 05:03:21;;;;;;;9.00;4.30;;;;;;;6.73;100.00;102299.94;105170;1264;74315;-54
2023/12/17 05:05:49;;;;;;;9.60;4.30;;;;;;;6.72;100.00;102302.02;105133;1270;83647;-55
2023/12/17 05:08:18;;;;;;;8.60;4.80;;;;;;;6.72;100.00;102308.27;105123;1257;72624;-55
2023/12/17 05:10:46;;;;;;;10.20;4.90;;;;;;;6.72;100.00;102308.46;105143;1257;69758;-55
2023/12/17 05:13:15;;;;;;;8.40;4.30;;;;;;;6.72;100.00;102308.46;105095;1260;69189;-54
2023/12/17 05:15:43;;;;;;;11.40;5.10;;;;;;;6.72;100.00;102305.86;105178;1260;73933;-54
2023/12/17 05:18:11;;;;;;;8.20;4.60;;;;;;;6.71;100.00;102309.67;105108;1260;82202;-55
2023/12/17 05:20:40;;;;;;;10.70;5.00;;;;;;;6.71;100.00;102316.27;105229;1263;70201;-54
2023/12/17 05:23:10;;;;;;;8.40;4.80;;;;;;;6.70;100.00;102316.77;105163;1263;69071;-56
2023/12/17 05:25:41;;;;;;;10.40;4.60;;;;;;;6.70;100.00;102316.77;105152;1262;69167;-55
2023/12/17 05:28:11;;;;;;;8.80;4.40;;;;;;;6.68;100.00;102322.50;105153;1260;74425;-54
2023/12/17 05:30:39;;;;;;;9.40;4.40;;;;;;;6.69;100.00;102323.90;105187;1258;80322;-53
2023/12/17 05:33:09;;;;;;;;;;;;;;;6.67;100.00;102315.37;105162;1263;71385;-55
2023/12/17 05:35:37;;;;;;;11.10;4.30;;;;;;;6.66;100.00;102318.13;105128;1258;69098;-54
2023/12/17 05:38:06;;;;;;;10.70;5.00;;;;;;;6.64;100.00;102318.80;105153;1260;69206;-56
2023/12/17 05:40:34;;;;;;;7.80;4.10;;;;;;;6.63;100.00;102317.93;105129;1264;72361;-54
2023/12/17 05:43:03;;;;;;;9.70;4.80;;;;;;;6.62;100.00;102321.39;105105;1260;81813;-55
2023/12/17 05:45:32;;;;;;;9.80;4.20;;;;;;;6.61;100.00;102316.69;105170;1260;72007;-55
2023/12/17 05:48:00;;;;;;;10.20;4.70;;;;;;;6.61;100.00;102318.95;105186;1262;69330;-56
2023/12/17 05:50:29;;;;;;;8.40;4.50;;;;;;;6.60;100.00;102318.59;105166;1260;69186;-55
2023/12/17 05:52:57;;;;;;;14.30;4.80;;;;;;;6.59;100.00;102311.45;105146;1263;74040;-55
2023/12/17 05:55:25;;;;;;;6.50;4.20;;;;;;;6.58;100.00;102313.53;105146;1260;82036;-53
2023/12/17 05:57:53;;;;;;;10.70;4.90;;;;;;;6.58;100.00;102317.18;105145;1261;71538;-55
2023/12/17 06:00:22;;;;;;;6.90;4.60;;;;;;;6.57;100.00;102318.02;105142;1257;69288;-56
2023/12/17 06:02:50;;;;;;;10.10;4.70;;;;;;;6.55;100.00;102318.38;105197;1261;69174;-56
2023/12/17 06:05:18;;;;;;;10.60;4.90;;;;;;;6.55;100.00;102319.76;105152;1263;72861;-55
2023/12/17 06:07:47;;;;;;;13.10;5.10;;;;;;;6.54;100.00;102320.77;105114;1261;81927;-55
2023/12/17 06:10:15;;;;;;;8.40;4.60;;;;;;;6.52;100.00;102317.11;105138;1258;70617;-56
2023/12/17 06:12:43;;;;;;;10.20;5.20;;;;;;;6.50;100.00;102316.91;105189;1270;69147;-55
2023/12/17 06:15:12;;;;;;;9.20;4.60;;;;;;;6.49;100.00;102321.09;105226;1260;69186;-55
2023/12/17 06:17:42;;;;;;;13.00;5.00;;;;;;;6.48;100.00;102323.83;105127;1261;73713;-55
2023/12/17 06:20:11;;;;;;;;;;;;;;;6.47;100.00;102322.63;105136;1263;81616;-54
2023/12/17 06:22:39;;;;;;;11.90;4.80;;;;;;;6.45;100.00;102327.48;105142;1263;71463;-55
2023/12/17 06:25:07;;;;;;;9.90;4.50;;;;;;;6.44;100.00;102331.27;105195;1261;69242;-55
2023/12/17 06:27:36;;;;;;;11.70;5.20;;;;;;;6.43;100.00;102334.05;105193;1260;69177;-56
2023/12/17 06:30:06;;;;;;;10.60;5.30;;;;;;;6.42;100.00;102334.56;105185;1263;73630;-55
2023/12/17 06:32:34;;;;;;;9.40;4.90;;;;;;;6.40;100.00;102339.92;105209;1258;82762;-54
2023/12/17 06:35:03;;;;;;;10.10;4.80;;;;;;;6.39;100.00;102344.77;105138;1262;71948;-55
2023/12/17 06:37:31;;;;;;;11.20;4.80;;;;;;;6.38;100.00;102341.80;105222;1258;69191;-54
2023/12/17 06:39:59;;;;;;;9.50;4.80;;;;;;;6.37;100.00;102335.70;105232;1260;69192;-56
2023/12/17 06:42:27;;;;;;;11.00;4.70;;;;;;;6.37;100.00;102331.55;105176;1260;73802;-53
2023/12/17 06:44:56;;;;;;;8.70;4.10;;;;;;;6.37;100.00;102324.77;105121;1261;81672;-55
2023/12/17 06:47:24;;;;;;;10.20;4.30;;;;;;;6.37;100.00;102327.72;105137;1261;71779;-55
2023/12/17 06:49:56;;;;;;;8.10;4.60;;;;;;;6.36;100.00;102316.77;105160;1262;69141;-55
2023/12/17 06:52:24;;;;;;;11.20;5.60;;;;;;;6.36;100.00;102317.46;105199;1263;69304;-54
2023/12/17 06:54:52;;;;;;;9.30;4.60;;;;;;;6.35;100.00;102318.51;105178;1257;73674;-55
2023/12/17 06:57:21;;;;;;;10.60;4.30;;;;;;;6.34;100.00;102320.20;105108;1262;82824;-56
2023/12/17 06:59:49;;;;;;;9.90;5.10;;;;;;;6.33;100.00;102324.73;105131;1261;71972;-54
2023/12/17 07:02:17;;;;;;;11.60;5.60;;;;;;;6.32;100.00;102326.46;105194;1261;69154;-55
2023/12/17 07:04:46;;;;;;;10.70;5.20;;;;;;;6.32;100.00;102327.85;105127;1260;69554;-55
2023/12/17 07:07:14;;;;;;;8.50;5.20;;;;;;;6.31;100.00;102328.34;105140;1261;74094;-55
2023/12/17 07:09:42;;;;;;;12.10;7.00;;;;;;;6.31;100.00;102328.35;105118;1260;81455;-55
2023/12/17 07:12:10;;;;;;;10.80;5.70;;;;;;;6.31;100.00;102334.94;105110;1258;71943;-56
2023/12/17 07:14:39;;;;;;;10.00;5.60;;;;;;;6.32;100.00;102326.79;105163;1258;69109;-55
2023/12/17 07:17:08;;;;;;;7.30;5.10;;;;;;;6.32;100.00;102327.66;105200;1260;69218;-54
2023/12/17 07:19:36;;;;;;;12.00;4.70;;;;;;;6.32;100.00;102328.90;105191;1260;74663;-54
2023/12/17 07:22:05;;;;;;;12.70;5.60;;;;;;;6.32;100.00;102334.96;105105;1261;82183;-54
2023/12/17 07:24:33;;;;;;;9.50;5.20;;;;;;;6.33;100.00;102336.52;105124;1260;70264;-54
2023/12/17 07:27:01;;;;;;;9.10;4.90;;;;;;;6.33;100.00;102341.58;105106;1261;69098;-55
2023/12/17 07:29:30;;;;;;;11.20;5.30;;;;;;;6.34;100.00;102347.64;105163;1260;69253;-55
2023/12/17 07:31:58;;;;;;;9.00;4.50;;;;;;;6.34;100.00;102361.02;105123;1257;73741;-54
2023/12/17 07:34:26;;;;;;;9.00;5.10;;;;;;;6.35;100.00;102361.73;105148;1260;81510;-54
2023/12/17 07:36:54;;;;;;;12.40;5.40;;;;;;;6.36;100.00;102361.58;105166;1257;72173;-55
2023/12/17 07:39:22;;;;;;;9.80;4.90;;;;;;;6.37;100.00;102365.39;105139;1258;69154;-54
2023/12/17 07:41:51;;;;;;;8.80;5.40;;;;;;;6.38;100.00;102366.63;105189;1260;69525;-54
2023/12/17 07:44:19;;;;;;;11.70;5.10;;;;;;;6.38;100.00;102365.95;105197;1261;74396;-55
2023/12/17 07:46:47;;;;;;;10.40;5.20;;;;;;;6.39;100.00;102370.46;105177;1261;81590;-54
2023/12/17 07:49:16;;;;;;;11.00;5.10;;;;;;;6.40;100.00;102370.83;105138;1261;73154;-55
2023/12/17 07:51:44;;;;;;;12.30;5.30;;;;;;;6.40;100.00;102366.48;105104;1258;69121;-55
2023/12/17 07:54:13;;;;;;;9.20;5.10;;;;;;;6.41;100.00;102359.38;105196;1256;70660;-54
2023/12/17 07:56:42;;;;;;;13.30;6.30;;;;;;;6.41;100.00;102357.83;105187;1257;73759;-54
2023/12/17 07:59:10;;;;;;;10.00;5.00;;;;;;;6.42;100.00;102359.91;105214;1260;81671;-55
2023/12/17 08:01:38;;;;;;;9.80;4.70;;;;;;;6.43;100.00;102362.52;105113;1261;72347;-55
2023/12/17 08:04:08;;;;;;;11.00;5.20;;;;;;;6.44;100.00;102363.05;105111;1261;69154;-55
2023/12/17 08:06:36;;;;;;;8.40;5.40;;;;;;;6.45;100.00;102362.02;105184;1258;69195;-55
2023/12/17 08:09:05;;;;;;;6.80;4.90;;;;;;;6.45;100.00;102362.20;105171;1258;74787;-55
2023/12/17 08:11:34;;;;;;;11.10;5.30;;;;;;;6.47;100.00;102361.70;105165;1258;83703;-53
2023/12/17 08:14:03;;;;;;;10.70;5.50;;;;;;;6.46;100.00;102365.17;105178;1262;73061;-55
2023/12/17 08:16:32;;;;;;;11.00;5.80;;;;;;;6.46;100.00;102360.99;105174;1260;69153;-55
2023/12/17 08:19:00;;;;;;;9.80;5.80;;;;;;;6.47;100.00;102365.70;105143;1260;69200;-55
2023/12/17 08:21:28;;;;;;;10.20;5.90;;;;;;;6.47;100.00;102362.05;105182;1261;73672;-54
2023/12/17 08:23:56;;;;;;;13.00;5.80;;;;;;;6.47;100.00;102355.45;105181;1258;81391;-55
2023/12/17 08:26:25;;;;;;;10.20;5.10;;;;;;;6.47;100.00;102351.45;105120;1260;72326;-54
2023/12/17 08:28:53;;;;;;;8.60;5.00;;;;;;;6.48;100.00;102352.67;105138;1260;69106;-54
2023/12/17 08:31:22;;;;;;;14.00;6.40;;;;;;;6.49;100.00;102353.23;105139;1260;69251;-55
2023/12/17 08:33:52;;;;;;;6.70;5.10;;;;;;;6.50;100.00;102357.55;105182;1258;74168;-55
2023/12/17 08:36:22;;;;;;;10.50;5.60;;;;;;;6.51;100.00;102371.63;105161;1257;81938;-54
2023/12/17 08:38:51;;;;;;;9.90;5.90;;;;;;;6.52;100.00;102373.21;105162;1260;72074;-55
2023/12/17 08:41:19;;;;;;;9.00;5.50;;;;;;;6.52;100.00;102371.48;105182;1261;69137;-55
2023/12/17 08:43:47;;;;;;;10.90;6.40;;;;;;;6.53;100.00;102365.58;105106;1260;69243;-55
2023/12/17 08:46:16;;;;;;;8.70;5.60;;;;;;;6.53;100.00;102368.18;105133;1257;73751;-54
2023/12/17 08:48:44;;;;;;;10.90;6.50;;;;;;;6.53;100.00;102360.89;105190;1261;81442;-54
2023/12/17 08:51:13;;;;;;;10.70;5.50;;;;;;;6.53;100.00;102358.64;105119;1258;71798;-53
2023/12/17 08:53:41;;;;;;;11.40;5.30;;;;;;;6.54;100.00;102345.95;105189;1257;69147;-55
2023/12/17 08:56:10;;;;;;;12.00;5.70;;;;;;;6.55;100.00;102347.20;105210;1258;69160;-56
2023/12/17 08:58:38;;;;;;;10.20;6.20;;;;;;;6.56;100.00;102349.98;105167;1257;74024;-55
2023/12/17 09:01:06;;;;;;;9.70;5.60;;;;;;;6.56;100.00;102348.59;105215;1260;81340;-53
2023/12/17 09:03:34;;;;;;;9.20;6.10;;;;;;;6.57;100.00;102346.52;105119;1260;72771;-55
2023/12/17 09:06:03;;;;;;;12.40;6.80;;;;;;;6.58;100.00;102339.23;105239;1257;69170;-55
2023/12/17 09:08:31;;;;;;;11.10;6.50;;;;;;;6.58;100.00;102339.77;105123;1260;69279;-53
2023/12/17 09:11:00;;;;;;;12.40;7.10;;;;;;;6.58;100.00;102339.23;105161;1261;73664;-54
2023/12/17 09:13:28;;;;;;;12.40;5.90;;;;;;;6.59;100.00;102330.73;105191;1260;81861;-56
2023/12/17 09:15:56;;;;;;;14.60;6.90;;;;;;;6.59;100.00;102329.17;105104;1257;73517;-53
2023/12/17 09:18:24;;;;;;;8.20;6.20;;;;;;;6.60;100.00;102326.58;105156;1261;69115;-52
2023/12/17 09:20:53;;;;;;;10.80;6.70;;;;;;;6.61;100.00;102328.33;105131;1260;69145;-54
2023/12/17 09:23:21;;;;;;;11.20;6.60;;;;;;;6.63;100.00;102329.39;105118;1261;74174;-55
2023/12/17 09:25:50;;;;;;;12.60;7.10;;;;;;;6.64;100.00;102336.52;105178;1258;82073;-55
2023/12/17 09:28:18;;;;;;;11.20;7.70;;;;;;;6.65;100.00;102343.48;105082;1260;71863;-55
2023/12/17 09:30:46;;;;;;;9.20;6.40;;;;;;;6.66;100.00;102342.97;105106;1260;69158;-53
2023/12/17 09:33:14;;;;;;;13.20;6.80;;;;;;;6.68;100.00;102339.86;105158;1260;69203;-56
2023/12/17 09:35:43;;;;;;;10.20;6.80;;;;;;;6.69;100.00;102329.45;105162;1261;74205;-55
2023/12/17 09:38:11;;;;;;;11.30;9.50;;;;;;;6.71;100.00;102326.34;105160;1260;81640;-54
2023/12/17 09:40:40;;;;;;;13.00;6.80;;;;;;;6.73;100.00;102319.92;105214;1258;71099;-56
2023/12/17 09:43:09;;;;;;;14.10;8.00;;;;;;;6.75;100.00;102313.19;105172;1256;69189;-55
2023/12/17 09:45:37;;;;;;;13.30;7.40;;;;;;;6.77;100.00;102310.08;105232;1257;69141;-54
2023/12/17 09:48:05;;;;;;;12.40;6.60;;;;;;;6.79;100.00;102305.59;105200;1260;75036;-55
2023/12/17 09:50:34;;;;;;;12.90;7.40;;;;;;;6.81;100.00;102309.94;105130;1261;82039;-55
2023/12/17 09:53:02;;;;;;;12.50;7.30;;;;;;;6.84;100.00;102306.30;105103;1258;71732;-54
2023/12/17 09:55:30;;;;;;;12.20;7.50;;;;;;;6.87;100.00;102298.69;105088;1257;69130;-54
2023/12/17 09:58:05;;;;;;;10.80;6.60;;;;;;;6.89;100.00;102297.33;105100;1261;69267;-55
2023/12/17 10:00:33;;;;;;;11.20;6.30;;;;;;;6.93;100.00;102313.52;105133;1257;72574;-55
2023/12/17 10:03:05;;;;;;;12.10;7.00;;;;;;;6.97;100.00;102305.36;105164;1258;81982;-54
2023/12/17 10:05:34;;;;;;;12.40;7.80;;;;;;;7.00;100.00;102311.83;105168;1257;70738;-55
2023/12/17 10:08:02;;;;;;;12.20;7.00;;;;;;;7.03;100.00;102315.68;105189;1256;69134;-55
2023/12/17 10:10:31;;;;;;;12.70;6.60;;;;;;;7.07;100.00;102312.58;105177;1260;69157;-54
2023/12/17 10:12:59;;;;;;;12.70;7.10;;;;;;;7.08;100.00;102306.67;105145;1260;73650;-54
2023/12/17 10:15:35;;;;;;;11.50;6.80;;;;;;;7.11;100.00;102311.05;105087;1261;81922;-55
2023/12/17 10:18:07;;;;;;;10.40;6.60;;;;;;;7.13;100.00;102312.30;105159;1260;71749;-55
2023/12/17 10:20:35;;;;;;;8.10;5.80;;;;;;;7.15;100.00;102320.48;105166;1260;69194;-56
2023/12/17 10:23:03;;;;;;;9.90;6.10;;;;;;;7.18;100.00;102315.63;105119;1260;69281;-55
2023/12/17 10:25:32;;;;;;;9.10;5.90;;;;;;;7.21;100.00;102300.17;105162;1257;75031;-55
2023/12/17 10:28:00;;;;;;;8.80;6.20;;;;;;;7.24;100.00;102305.24;105138;1260;81477;-54
2023/12/17 10:30:33;;;;;;;9.20;6.00;;;;;;;7.24;100.00;102300.02;105213;1258;72951;-54
2023/12/17 10:33:02;;;;;;;9.20;6.00;;;;;;;7.25;100.00;102300.90;105148;1260;69761;-55
2023/12/17 10:35:32;;;;;;;10.30;6.30;;;;;;;7.26;100.00;102304.05;105155;1260;69510;-55
2023/12/17 10:38:03;;;;;;;10.20;6.40;;;;;;;7.27;100.00;102311.00;105181;1257;73670;-55
2023/12/17 10:40:32;;;;;;;10.00;6.20;;;;;;;7.30;100.00;102308.77;105157;1260;80990;-55
2023/12/17 10:43:01;;;;;;;11.10;6.10;;;;;;;7.32;100.00;102308.09;105128;1260;71357;-55
2023/12/17 10:45:30;;;;;;;9.10;5.80;;;;;;;7.32;100.00;102313.48;105147;1257;69207;-55
2023/12/17 10:47:59;;;;;;;9.80;5.90;;;;;;;7.33;100.00;102311.57;105199;1257;69071;-55
2023/12/17 10:50:28;;;;;;;11.70;5.40;;;;;;;7.35;100.00;102316.98;105181;1256;72548;-55
2023/12/17 10:52:56;;;;;;;7.60;5.70;;;;;;;7.35;100.00;102307.59;105161;1261;82580;-56
2023/12/17 10:55:24;;;;;;;8.40;6.00;;;;;;;7.37;100.00;102300.11;104952;1258;187155;-55
2023/12/17 10:57:57;;;;;;;9.90;5.50;;;;;;;7.40;100.00;102289.17;105175;1257;69197;-55
2023/12/17 11:00:28;;;;;;;10.90;6.20;;;;;;;7.41;100.00;102289.19;105119;1257;69170;-55
2023/12/17 11:02:59;;;;;;;7.80;5.80;;;;;;;7.43;100.00;102285.18;105159;1260;73725;-55
2023/12/17 11:05:28;;;;;;;8.60;5.70;;;;;;;7.43;100.00;102285.53;105134;1257;81334;-54
2023/12/17 11:07:56;;;;;;;9.80;6.10;;;;;;;7.42;100.00;102286.05;105200;1257;72040;-55
2023/12/17 11:10:25;;;;;;;8.30;5.80;;;;;;;7.41;100.00;102292.67;105177;1256;69193;-55
2023/12/17 11:12:54;;;;;;;7.10;5.50;;;;;;;7.41;100.00;102293.70;105132;1256;69115;-55
2023/12/17 11:15:23;;;;;;;7.10;5.80;;;;;;;7.39;100.00;102294.04;105162;1261;73854;-55
2023/12/17 11:17:54;;;;;;;8.60;5.50;;;;;;;7.37;100.00;102291.77;105134;1256;80815;-53
2023/12/17 11:20:33;;;;;;;9.20;5.90;;;;;;;7.36;100.00;102286.02;105158;1257;71986;-55